Time;durP1;ratioP1;P1;durP2;ratioP2;P2;SDS_P1;SDS_P2;PMS_P1;PMS_P2;Temp;Humidity;BMP_temperature;BMP_pressure;BME280_temperature;BME280_humidity;BME280_pressure;Samples;Min_cycle;Max_cycle;Signal;HPM_P1;HPM_P2
2023/10/23 00:02:10;;;;;;;5.95;3.10;;;8.20;99.90;;;;;;4998897;28;20458;-74
2023/10/23 00:04:42;;;;;;;3.92;2.47;;;8.20;99.90;;;;;;5002122;28;20459;-74
2023/10/23 00:07:07;;;;;;;6.47;2.73;;;8.10;99.90;;;;;;4992516;28;20053;-74
2023/10/23 00:09:33;;;;;;;4.43;2.53;;;8.10;99.90;;;;;;4997112;28;20051;-74
2023/10/23 00:11:59;;;;;;;6.13;2.53;;;8.10;99.90;;;;;;5000989;28;20466;-74
2023/10/23 00:14:27;;;;;;;5.73;2.77;;;8.10;99.90;;;;;;5004486;28;20042;-74
2023/10/23 00:16:55;;;;;;;5.15;2.67;;;8.00;99.90;;;;;;5006878;28;20053;-74
2023/10/23 00:19:22;;;;;;;6.03;2.83;;;8.00;99.90;;;;;;5008893;28;20130;-74
2023/10/23 00:21:47;;;;;;;4.88;2.40;;;8.00;99.90;;;;;;5015055;28;20064;-74
2023/10/23 00:24:13;;;;;;;4.37;2.70;;;8.00;99.90;;;;;;5007374;28;20499;-74
2023/10/23 00:26:44;;;;;;;5.07;2.88;;;8.00;99.90;;;;;;5018622;28;20133;-74
2023/10/23 00:29:09;;;;;;;4.20;2.58;;;8.00;99.90;;;;;;5016396;28;20045;-74
2023/10/23 00:31:35;;;;;;;5.47;2.93;;;8.00;99.90;;;;;;5015284;28;20580;-74
2023/10/23 00:34:00;;;;;;;6.83;3.20;;;8.00;99.90;;;;;;5016671;28;20087;-73
2023/10/23 00:36:26;;;;;;;9.03;2.90;;;8.00;99.90;;;;;;5015609;28;20129;-74
2023/10/23 00:38:54;;;;;;;4.93;2.73;;;8.00;99.90;;;;;;5019647;28;20049;-73
2023/10/23 00:41:22;;;;;;;5.18;2.45;;;8.00;99.90;;;;;;5013779;28;20041;-74
2023/10/23 00:43:48;;;;;;;4.75;3.15;;;8.00;99.90;;;;;;5012337;28;20274;-73
2023/10/23 00:46:24;;;;;;;5.63;3.47;;;8.00;99.90;;;;;;5020246;28;20041;-74
2023/10/23 00:48:51;;;;;;;6.53;3.13;;;8.00;99.90;;;;;;5018074;28;20045;-74
2023/10/23 00:51:19;;;;;;;6.03;3.10;;;8.00;99.90;;;;;;5018151;28;20120;-74
2023/10/23 00:53:45;;;;;;;5.13;3.03;;;8.00;99.90;;;;;;5000668;28;20069;-73
2023/10/23 00:56:12;;;;;;;4.65;2.70;;;8.00;99.90;;;;;;5015102;28;20170;-74
2023/10/23 00:58:40;;;;;;;7.28;2.95;;;8.00;99.90;;;;;;4991321;28;20312;-74
2023/10/23 01:01:09;;;;;;;8.93;3.13;;;7.90;99.90;;;;;;5014120;28;20038;-74
2023/10/23 01:03:35;;;;;;;6.35;2.75;;;7.90;99.90;;;;;;5013933;28;20107;-73
2023/10/23 01:06:01;;;;;;;6.67;3.00;;;8.00;99.90;;;;;;5017189;28;20486;-74
2023/10/23 01:08:27;;;;;;;4.93;2.78;;;7.90;99.90;;;;;;5015272;28;20203;-74
2023/10/23 01:10:52;;;;;;;5.90;2.77;;;7.90;99.90;;;;;;5014394;28;20125;-74
2023/10/23 01:13:19;;;;;;;4.90;2.70;;;7.90;99.90;;;;;;5016104;28;20045;-74
2023/10/23 01:15:45;;;;;;;4.57;2.83;;;7.80;99.90;;;;;;4990504;28;20387;-74
2023/10/23 01:18:10;;;;;;;7.30;2.90;;;7.80;99.90;;;;;;5013704;28;20549;-74
2023/10/23 01:20:36;;;;;;;3.60;2.40;;;7.80;99.90;;;;;;5013366;28;20052;-74
2023/10/23 01:23:02;;;;;;;4.67;2.83;;;7.70;99.90;;;;;;5011628;28;20554;-74
2023/10/23 01:25:29;;;;;;;5.03;3.13;;;7.70;99.90;;;;;;5018862;28;20556;-74
2023/10/23 01:28:00;;;;;;;4.95;3.33;;;7.70;99.90;;;;;;5015276;28;20133;-74
2023/10/23 01:30:28;;;;;;;5.45;2.70;;;7.70;99.90;;;;;;5009677;28;20045;-74
2023/10/23 01:32:54;;;;;;;6.22;2.80;;;7.60;99.90;;;;;;5010956;28;20077;-74
2023/10/23 01:35:20;;;;;;;7.40;2.80;;;7.60;99.90;;;;;;5012370;28;20068;-74
2023/10/23 01:37:47;;;;;;;4.57;2.83;;;7.60;99.90;;;;;;5011225;28;20129;-74
2023/10/23 01:40:13;;;;;;;4.38;2.65;;;7.50;99.90;;;;;;5010298;28;20509;-74
2023/10/23 01:42:39;;;;;;;5.07;3.17;;;7.50;99.90;;;;;;5007438;28;20033;-74
2023/10/23 01:45:08;;;;;;;4.25;2.60;;;7.50;99.90;;;;;;5014350;28;20528;-74
2023/10/23 01:47:34;;;;;;;6.97;3.30;;;7.40;99.90;;;;;;5013093;28;20504;-74
2023/10/23 01:49:59;;;;;;;7.63;3.03;;;7.40;99.90;;;;;;5009623;28;20053;-74
2023/10/23 01:52:25;;;;;;;8.60;2.97;;;7.30;99.90;;;;;;5012545;28;20034;-74
2023/10/23 01:54:58;;;;;;;7.78;2.70;;;7.30;99.90;;;;;;5012492;28;20045;-74
2023/10/23 01:57:24;;;;;;;3.92;2.63;;;7.30;99.90;;;;;;5037929;28;20037;-74
2023/10/23 01:59:49;;;;;;;7.25;3.70;;;7.30;99.90;;;;;;5009527;28;20056;-74
2023/10/23 02:02:18;;;;;;;8.10;2.77;;;7.30;99.90;;;;;;5017019;28;20402;-74
2023/10/23 02:04:43;;;;;;;6.25;3.33;;;7.20;99.90;;;;;;4993312;28;20505;-74
2023/10/23 02:07:09;;;;;;;5.10;3.60;;;7.20;99.90;;;;;;5001100;28;20096;-74
2023/10/23 02:09:34;;;;;;;5.00;3.03;;;7.20;99.90;;;;;;5009831;28;20076;-74
2023/10/23 02:12:01;;;;;;;5.37;3.27;;;7.20;99.90;;;;;;5018058;28;20630;-74
2023/10/23 02:14:27;;;;;;;;;;;7.10;99.90;;;;;;5015299;28;20042;-74
2023/10/23 02:16:52;;;;;;;8.77;3.30;;;7.10;99.90;;;;;;5006019;28;19917;-74
2023/10/23 02:19:20;;;;;;;5.27;2.73;;;7.10;99.90;;;;;;5014771;28;20077;-74
2023/10/23 02:21:52;;;;;;;5.93;3.17;;;7.10;99.90;;;;;;5011974;28;20108;-74
2023/10/23 02:24:19;;;;;;;5.80;3.38;;;7.10;99.90;;;;;;5014724;28;20386;-74
2023/10/23 02:26:45;;;;;;;8.52;3.60;;;7.10;99.90;;;;;;5017489;28;20091;-74
2023/10/23 02:29:14;;;;;;;5.95;3.35;;;7.10;99.90;;;;;;5015720;28;20974;-75
2023/10/23 02:31:39;;;;;;;5.50;3.13;;;7.10;99.90;;;;;;5016111;28;20165;-74
2023/10/23 02:34:05;;;;;;;5.43;3.57;;;7.10;99.90;;;;;;5013345;28;20128;-74
2023/10/23 02:36:31;;;;;;;6.97;3.17;;;7.00;99.90;;;;;;5013882;28;20038;-74
2023/10/23 02:39:00;;;;;;;7.13;3.40;;;7.10;99.90;;;;;;5016388;28;20049;-74
2023/10/23 02:41:29;;;;;;;5.72;3.38;;;7.00;99.90;;;;;;5010573;28;20089;-74
2023/10/23 02:43:55;;;;;;;7.28;3.55;;;7.10;99.90;;;;;;5012306;28;20410;-74
2023/10/23 02:46:21;;;;;;;10.50;3.47;;;7.20;99.90;;;;;;5014443;28;20049;-74
2023/10/23 02:48:46;;;;;;;8.20;4.60;;;7.20;99.90;;;;;;5017587;28;20037;-74
2023/10/23 02:51:14;;;;;;;5.83;3.37;;;7.20;99.90;;;;;;5010682;28;20542;-74
2023/10/23 02:53:43;;;;;;;5.03;3.00;;;7.20;99.90;;;;;;5012506;28;20090;-74
2023/10/23 02:56:12;;;;;;;6.60;3.77;;;7.10;99.90;;;;;;5012354;28;20072;-74
2023/10/23 02:58:43;;;;;;;5.95;3.70;;;7.10;99.90;;;;;;5005773;28;20299;-74
2023/10/23 03:01:16;;;;;;;6.78;3.53;;;7.00;99.90;;;;;;5009893;28;20053;-74
2023/10/23 03:03:43;;;;;;;8.10;4.25;;;7.10;99.90;;;;;;5007597;28;20038;-74
2023/10/23 03:06:11;;;;;;;9.75;3.95;;;7.00;99.90;;;;;;5010767;28;20068;-74
2023/10/23 03:08:39;;;;;;;6.65;3.80;;;7.10;99.90;;;;;;5009777;28;20045;-74
2023/10/23 03:11:05;;;;;;;6.38;3.58;;;7.00;99.90;;;;;;5011414;28;20057;-74
2023/10/23 03:13:32;;;;;;;5.67;3.43;;;7.00;99.90;;;;;;5010720;28;20218;-74
2023/10/23 03:15:57;;;;;;;7.18;3.83;;;7.00;99.90;;;;;;5015033;28;20390;-74
2023/10/23 03:18:26;;;;;;;5.93;3.77;;;7.00;99.90;;;;;;5010666;28;20037;-74
2023/10/23 03:20:51;;;;;;;6.05;3.15;;;7.00;99.90;;;;;;5015075;28;20136;-74
2023/10/23 03:23:22;;;;;;;7.47;3.55;;;7.00;99.90;;;;;;5009688;28;20128;-74
2023/10/23 03:25:51;;;;;;;6.75;3.78;;;7.00;99.90;;;;;;5006808;28;20375;-74
2023/10/23 03:28:16;;;;;;;6.63;4.20;;;7.00;99.90;;;;;;5012679;28;20080;-74
2023/10/23 03:30:42;;;;;;;7.13;3.97;;;7.00;99.90;;;;;;5011724;28;20049;-74
2023/10/23 03:33:08;;;;;;;7.17;3.90;;;7.00;99.90;;;;;;5015453;28;20045;-74
2023/10/23 03:35:35;;;;;;;6.13;3.63;;;7.10;99.90;;;;;;5010048;28;20080;-74
2023/10/23 03:38:02;;;;;;;6.47;3.75;;;7.10;99.90;;;;;;5007018;28;20129;-74
2023/10/23 03:40:27;;;;;;;6.60;4.40;;;7.10;99.90;;;;;;5014023;28;20148;-74
2023/10/23 03:42:53;;;;;;;5.50;3.40;;;7.10;99.90;;;;;;5008022;28;20053;-74
2023/10/23 03:45:19;;;;;;;7.37;4.33;;;7.10;99.90;;;;;;5006735;28;20045;-74
2023/10/23 03:47:44;;;;;;;10.07;4.37;;;7.10;99.90;;;;;;5021760;28;20053;-74
2023/10/23 03:50:10;;;;;;;7.67;4.07;;;7.20;99.90;;;;;;5008739;28;20054;-74
2023/10/23 03:52:35;;;;;;;9.77;4.33;;;7.20;99.90;;;;;;5013109;28;20520;-74
2023/10/23 03:55:01;;;;;;;7.87;4.47;;;7.30;99.90;;;;;;5016672;28;20129;-74
2023/10/23 03:57:34;;;;;;;8.10;4.03;;;7.30;99.90;;;;;;5014461;28;20037;-74
2023/10/23 04:00:03;;;;;;;6.97;3.97;;;7.30;99.90;;;;;;5010528;28;20042;-74
2023/10/23 04:02:29;;;;;;;7.05;4.93;;;7.30;99.90;;;;;;5008556;28;20061;-74
2023/10/23 04:04:57;;;;;;;9.27;4.00;;;7.30;99.90;;;;;;5015888;28;20041;-74
2023/10/23 04:07:23;;;;;;;6.10;4.07;;;7.30;99.90;;;;;;5012301;28;20284;-74
2023/10/23 04:09:49;;;;;;;13.07;4.38;;;7.30;99.90;;;;;;5010243;28;20049;-74
2023/10/23 04:12:14;;;;;;;8.07;4.33;;;7.20;99.90;;;;;;5014119;28;20397;-74
2023/10/23 04:14:40;;;;;;;13.80;4.20;;;7.20;99.90;;;;;;5012090;28;20365;-75
2023/10/23 04:17:06;;;;;;;8.30;4.50;;;7.20;99.90;;;;;;5013378;28;20045;-74
2023/10/23 04:19:31;;;;;;;10.43;4.33;;;7.10;99.90;;;;;;5010761;28;20468;-74
2023/10/23 04:21:57;;;;;;;8.73;5.03;;;7.10;99.90;;;;;;5014071;28;20038;-74
2023/10/23 04:24:22;;;;;;;6.07;4.37;;;7.10;99.90;;;;;;5009891;28;20507;-74
2023/10/23 04:26:48;;;;;;;9.53;4.40;;;7.00;99.90;;;;;;5017810;28;20046;-74
2023/10/23 04:29:13;;;;;;;6.50;4.00;;;7.00;99.90;;;;;;5008723;28;20052;-75
2023/10/23 04:31:42;;;;;;;9.97;4.20;;;7.00;99.90;;;;;;5008716;28;20041;-74
2023/10/23 04:34:07;;;;;;;8.45;4.70;;;7.00;99.90;;;;;;5011163;28;20061;-74
2023/10/23 04:36:36;;;;;;;8.23;4.63;;;6.90;99.90;;;;;;5010797;28;20038;-74
2023/10/23 04:39:01;;;;;;;7.03;3.90;;;6.90;99.90;;;;;;5007531;28;20068;-74
2023/10/23 04:41:27;;;;;;;8.77;4.10;;;6.90;99.90;;;;;;5010775;28;20034;-74
2023/10/23 04:43:55;;;;;;;5.77;3.90;;;6.80;99.90;;;;;;5012566;28;20048;-74
2023/10/23 04:46:23;;;;;;;7.35;3.97;;;6.80;99.90;;;;;;5011065;28;20100;-74
2023/10/23 04:48:49;;;;;;;6.72;4.00;;;6.80;99.90;;;;;;5008339;28;20054;-74
2023/10/23 04:51:14;;;;;;;6.83;3.70;;;6.70;99.90;;;;;;5010695;28;20037;-74
2023/10/23 04:53:40;;;;;;;9.17;4.47;;;6.70;99.90;;;;;;5011048;28;20061;-74
2023/10/23 04:56:06;;;;;;;7.67;4.47;;;6.60;99.90;;;;;;5009706;28;20490;-74
2023/10/23 04:58:32;;;;;;;7.40;3.97;;;6.70;99.90;;;;;;5009555;28;20132;-74
2023/10/23 05:00:57;;;;;;;7.00;4.60;;;6.70;99.90;;;;;;5013422;28;20191;-74
2023/10/23 05:03:23;;;;;;;6.97;4.33;;;6.60;99.90;;;;;;5008323;28;20041;-74
2023/10/23 05:05:49;;;;;;;7.50;4.57;;;6.60;99.90;;;;;;5010779;28;20401;-74
2023/10/23 05:08:17;;;;;;;7.30;4.03;;;6.50;99.90;;;;;;5009965;28;20394;-74
2023/10/23 05:10:45;;;;;;;8.93;4.43;;;6.50;99.90;;;;;;5011704;28;20056;-74
2023/10/23 05:13:10;;;;;;;8.63;4.30;;;6.50;99.90;;;;;;5018160;28;20624;-74
2023/10/23 05:15:36;;;;;;;8.27;4.70;;;6.50;99.90;;;;;;5014540;28;20117;-74
2023/10/23 05:18:02;;;;;;;8.10;3.83;;;6.40;99.90;;;;;;5014137;28;20064;-74
2023/10/23 05:20:27;;;;;;;8.77;5.00;;;6.40;99.90;;;;;;5010577;28;21256;-74
2023/10/23 05:22:53;;;;;;;7.33;4.37;;;6.30;99.90;;;;;;5015689;28;21376;-74
2023/10/23 05:25:18;;;;;;;9.97;4.87;;;6.30;99.90;;;;;;5008086;28;20041;-74
2023/10/23 05:27:44;;;;;;;7.90;4.50;;;6.30;99.90;;;;;;5015998;28;20625;-74
2023/10/23 05:30:10;;;;;;;6.40;4.23;;;6.20;99.90;;;;;;5020503;28;20398;-74
2023/10/23 05:32:38;;;;;;;9.07;5.03;;;6.20;99.90;;;;;;5027017;28;20105;-74
2023/10/23 05:35:07;;;;;;;7.75;4.70;;;6.20;99.90;;;;;;5015034;28;20286;-74
2023/10/23 05:37:34;;;;;;;8.45;4.90;;;6.20;99.90;;;;;;5015082;28;20478;-74
2023/10/23 05:39:59;;;;;;;10.80;4.57;;;6.20;99.90;;;;;;5019880;28;20049;-74
2023/10/23 05:42:25;;;;;;;7.43;4.23;;;6.20;99.90;;;;;;5015168;28;20042;-74
2023/10/23 05:44:51;;;;;;;7.87;4.70;;;6.10;99.90;;;;;;5012610;28;20125;-74
2023/10/23 05:47:17;;;;;;;8.82;4.50;;;6.10;99.90;;;;;;5013683;28;20462;-74
2023/10/23 05:49:42;;;;;;;9.47;5.00;;;6.10;99.90;;;;;;5013398;28;20066;-78
2023/10/23 05:52:19;;;;;;;9.10;4.80;;;6.10;99.90;;;;;;5017579;28;20179;-75
2023/10/23 05:54:44;;;;;;;8.70;4.68;;;6.10;99.90;;;;;;5015716;28;20120;-73
2023/10/23 05:57:10;;;;;;;7.77;4.87;;;6.10;99.90;;;;;;5016419;28;20084;-76
2023/10/23 05:59:38;;;;;;;10.87;5.50;;;6.10;99.90;;;;;;5001858;28;20045;-73
2023/10/23 06:02:03;;;;;;;9.32;4.97;;;6.10;99.90;;;;;;5013615;28;20044;-73
2023/10/23 06:04:29;;;;;;;9.57;5.27;;;6.10;99.90;;;;;;5014721;28;20128;-73
2023/10/23 06:06:55;;;;;;;9.07;5.15;;;6.10;99.90;;;;;;5017174;28;20512;-73
2023/10/23 06:09:23;;;;;;;9.97;5.43;;;6.10;99.90;;;;;;5015688;28;20424;-73
2023/10/23 06:11:48;;;;;;;9.35;5.25;;;6.10;99.90;;;;;;5012054;28;20129;-73
2023/10/23 06:14:14;;;;;;;10.57;5.50;;;6.10;99.90;;;;;;5012166;28;20120;-74
2023/10/23 06:16:42;;;;;;;14.73;5.67;;;6.00;99.90;;;;;;5013905;28;20041;-73
2023/10/23 06:19:10;;;;;;;11.88;5.78;;;6.00;99.90;;;;;;5018227;28;20444;-73
2023/10/23 06:21:38;;;;;;;9.18;5.30;;;6.00;99.90;;;;;;4998861;28;20117;-74
2023/10/23 06:24:07;;;;;;;9.50;6.00;;;6.00;99.90;;;;;;5000624;28;20125;-73
2023/10/23 06:26:33;;;;;;;10.88;5.55;;;6.00;99.90;;;;;;5022654;28;20037;-73
2023/10/23 06:28:59;;;;;;;8.03;4.87;;;6.00;99.90;;;;;;5013136;28;20045;-73
2023/10/23 06:31:27;;;;;;;8.80;5.25;;;6.00;99.90;;;;;;5013602;28;20152;-73
2023/10/23 06:33:53;;;;;;;9.52;5.45;;;6.00;99.90;;;;;;5011638;28;20499;-73
2023/10/23 06:36:21;;;;;;;7.35;5.00;;;6.00;99.90;;;;;;5016952;28;20038;-73
2023/10/23 06:38:47;;;;;;;8.80;5.20;;;6.00;99.90;;;;;;5007565;28;20326;-73
2023/10/23 06:41:13;;;;;;;9.50;5.37;;;6.00;99.90;;;;;;5026964;28;20091;-73
2023/10/23 06:43:39;;;;;;;;;;;6.00;99.90;;;;;;5002117;28;20037;-73
2023/10/23 06:46:04;;;;;;;8.05;4.70;;;6.00;99.90;;;;;;5009599;28;19921;-73
2023/10/23 06:48:31;;;;;;;10.43;5.70;;;6.00;99.90;;;;;;5009540;28;20553;-73
2023/10/23 06:50:56;;;;;;;9.40;5.15;;;6.00;99.90;;;;;;5003046;28;20095;-73
2023/10/23 06:53:22;;;;;;;11.90;5.87;;;6.00;99.90;;;;;;5012384;28;20054;-73
2023/10/23 06:55:48;;;;;;;10.70;6.43;;;6.00;99.90;;;;;;5003904;28;20478;-73
2023/10/23 06:58:13;;;;;;;13.97;7.20;;;6.00;99.90;;;;;;5011180;28;20121;-73
2023/10/23 07:00:39;;;;;;;12.05;5.90;;;6.00;99.90;;;;;;5019225;28;20045;-73
2023/10/23 07:03:05;;;;;;;10.57;6.53;;;6.10;99.90;;;;;;5012147;28;20045;-73
2023/10/23 07:05:30;;;;;;;9.80;5.80;;;6.10;99.90;;;;;;5005879;28;20087;-74
2023/10/23 07:07:56;;;;;;;10.73;5.53;;;6.10;99.90;;;;;;5017105;28;20053;-74
2023/10/23 07:10:21;;;;;;;8.60;5.40;;;6.10;99.90;;;;;;5016808;28;20505;-73
2023/10/23 07:12:47;;;;;;;9.00;5.40;;;6.10;99.90;;;;;;5012323;28;20042;-73
2023/10/23 07:15:13;;;;;;;8.23;5.37;;;6.20;99.90;;;;;;5015399;28;20492;-74
2023/10/23 07:17:38;;;;;;;10.87;4.93;;;6.20;99.90;;;;;;5011563;28;20052;-74
2023/10/23 07:20:06;;;;;;;9.83;5.53;;;6.30;99.90;;;;;;5015267;28;20045;-74
2023/10/23 07:22:33;;;;;;;7.88;4.95;;;6.30;99.90;;;;;;5010290;28;20049;-73
2023/10/23 07:24:59;;;;;;;8.65;5.43;;;6.40;99.90;;;;;;5014767;28;20103;-73
2023/10/23 07:27:26;;;;;;;9.65;5.95;;;6.40;99.90;;;;;;5017289;28;20064;-74
2023/10/23 07:29:53;;;;;;;;;;;6.50;99.90;;;;;;5015458;28;20052;-73
2023/10/23 07:32:19;;;;;;;9.13;5.00;;;6.50;99.90;;;;;;4992492;28;20366;-73
2023/10/23 07:34:44;;;;;;;12.15;6.47;;;6.60;99.90;;;;;;5014336;28;20103;-73
2023/10/23 07:37:17;;;;;;;10.10;6.30;;;6.60;99.90;;;;;;5014725;28;20038;-74
2023/10/23 07:39:47;;;;;;;11.35;5.78;;;6.70;99.90;;;;;;5009973;28;20501;-74
2023/10/23 07:42:15;;;;;;;10.63;6.43;;;6.80;99.90;;;;;;5008955;28;20049;-74
2023/10/23 07:44:42;;;;;;;8.48;5.32;;;6.80;99.90;;;;;;4996743;28;20048;-74
2023/10/23 07:47:08;;;;;;;10.20;6.10;;;7.00;99.90;;;;;;4989278;28;20041;-74
2023/10/23 07:49:33;;;;;;;9.53;5.50;;;7.00;99.90;;;;;;5012986;28;20564;-74
2023/10/23 07:51:59;;;;;;;9.17;4.93;;;7.00;99.90;;;;;;5021035;28;20131;-73
2023/10/23 07:54:24;;;;;;;8.80;5.20;;;7.10;99.90;;;;;;5007437;28;20045;-73
2023/10/23 07:56:50;;;;;;;9.50;5.83;;;7.20;99.90;;;;;;5009782;28;20129;-74
2023/10/23 07:59:19;;;;;;;11.60;5.47;;;7.30;99.90;;;;;;5012714;28;20068;-73
2023/10/23 08:01:44;;;;;;;10.38;5.57;;;7.40;99.90;;;;;;5009897;28;20081;-74
2023/10/23 08:04:10;;;;;;;7.60;4.87;;;7.50;99.90;;;;;;5007976;28;20081;-74
2023/10/23 08:06:36;;;;;;;9.87;6.20;;;7.50;99.90;;;;;;5011274;28;20048;-74
2023/10/23 08:09:03;;;;;;;8.10;5.00;;;7.60;99.90;;;;;;5008490;28;20053;-73
2023/10/23 08:11:29;;;;;;;10.13;5.88;;;7.60;99.90;;;;;;5014690;28;20121;-74
2023/10/23 08:13:54;;;;;;;8.80;5.27;;;7.80;99.90;;;;;;5009591;28;20124;-73
2023/10/23 08:16:20;;;;;;;10.13;5.40;;;7.90;99.90;;;;;;5008149;28;20548;-73
2023/10/23 08:18:46;;;;;;;11.10;6.30;;;7.90;99.90;;;;;;5014278;28;20053;-73
2023/10/23 08:21:15;;;;;;;11.07;5.37;;;8.00;99.90;;;;;;5016054;28;20034;-74
2023/10/23 08:23:44;;;;;;;11.02;5.97;;;8.10;99.90;;;;;;5012169;28;20452;-73
2023/10/23 08:26:11;;;;;;;13.80;5.68;;;8.20;99.90;;;;;;5013667;28;20052;-74
2023/10/23 08:28:37;;;;;;;9.20;5.80;;;8.30;99.90;;;;;;5007517;28;20069;-73
2023/10/23 08:31:03;;;;;;;8.37;5.13;;;8.40;99.90;;;;;;4992853;28;20045;-73
2023/10/23 08:33:29;;;;;;;10.17;5.50;;;8.50;99.90;;;;;;5010024;28;20290;-73
2023/10/23 08:35:54;;;;;;;8.23;5.57;;;8.50;99.90;;;;;;5007066;28;20069;-74
2023/10/23 08:38:20;;;;;;;10.53;6.27;;;8.60;99.90;;;;;;4988969;28;20343;-73
2023/10/23 08:40:47;;;;;;;9.73;5.97;;;8.70;99.90;;;;;;5006533;28;20045;-73
2023/10/23 08:43:12;;;;;;;8.52;5.28;;;8.80;99.90;;;;;;5013722;28;20125;-73
2023/10/23 08:45:41;;;;;;;10.75;5.65;;;8.90;99.90;;;;;;5008484;28;20539;-73
2023/10/23 08:48:07;;;;;;;8.15;5.25;;;8.90;99.90;;;;;;5021999;28;20132;-73
2023/10/23 08:50:34;;;;;;;9.63;5.57;;;9.00;99.90;;;;;;5012221;28;20140;-73
2023/10/23 08:53:06;;;;;;;8.52;5.65;;;9.20;99.90;;;;;;5018095;28;20536;-73
2023/10/23 08:55:32;;;;;;;10.60;4.78;;;9.20;99.90;;;;;;5011385;28;20080;-73
2023/10/23 08:57:59;;;;;;;7.63;4.60;;;9.40;99.90;;;;;;5015336;28;20077;-74
2023/10/23 09:00:25;;;;;;;8.77;5.05;;;9.40;99.90;;;;;;5014924;28;20046;-73
2023/10/23 09:02:52;;;;;;;12.40;5.57;;;9.50;99.90;;;;;;5008526;28;20411;-74
2023/10/23 09:05:19;;;;;;;9.05;5.72;;;9.60;99.90;;;;;;5010708;28;20413;-73
2023/10/23 09:07:45;;;;;;;;;;;9.70;99.90;;;;;;5013405;28;20064;-73
2023/10/23 09:10:11;;;;;;;7.45;4.85;;;9.90;99.90;;;;;;5014065;28;20008;-73
2023/10/23 09:12:39;;;;;;;9.20;5.55;;;9.90;99.90;;;;;;5016137;28;20124;-75
2023/10/23 09:15:20;;;;;;;9.88;5.32;;;10.10;99.90;;;;;;5010704;28;20129;-73
2023/10/23 09:17:49;;;;;;;7.28;5.22;;;10.10;99.90;;;;;;5013876;28;20042;-75
2023/10/23 09:20:24;;;;;;;7.55;4.70;;;10.20;99.90;;;;;;5011399;28;20098;-74
2023/10/23 09:22:53;;;;;;;10.20;5.28;;;10.30;99.90;;;;;;5018439;28;20321;-77
2023/10/23 09:25:25;;;;;;;10.02;5.05;;;10.50;99.90;;;;;;5023707;28;20045;-74
2023/10/23 09:27:52;;;;;;;7.60;4.60;;;10.60;99.90;;;;;;5011390;28;20046;-73
2023/10/23 09:30:21;;;;;;;;;;;10.70;99.90;;;;;;5015456;28;20397;-74
2023/10/23 09:32:53;;;;;;;8.23;4.82;;;10.70;99.90;;;;;;5015716;28;19917;-74
2023/10/23 09:35:19;;;;;;;7.03;4.63;;;10.80;99.90;;;;;;5012364;28;20423;-74
2023/10/23 09:37:45;;;;;;;9.23;4.65;;;11.00;99.90;;;;;;5022363;28;20124;-74
2023/10/23 09:40:16;;;;;;;7.70;4.95;;;11.10;99.90;;;;;;5015315;28;20719;-74
2023/10/23 09:42:42;;;;;;;7.60;4.75;;;11.20;99.90;;;;;;5018040;28;20056;-74
2023/10/23 09:45:09;;;;;;;7.25;4.10;;;11.30;99.90;;;;;;5015368;28;20041;-73
2023/10/23 09:47:35;;;;;;;6.90;4.07;;;11.40;99.90;;;;;;5019191;28;20449;-74
2023/10/23 09:50:03;;;;;;;7.90;4.50;;;11.50;99.90;;;;;;5014990;28;20049;-73
2023/10/23 09:52:33;;;;;;;6.35;3.85;;;11.60;99.90;;;;;;5013031;28;20410;-74
2023/10/23 09:55:03;;;;;;;5.55;3.53;;;11.70;99.90;;;;;;5017789;28;20470;-73
2023/10/23 09:57:39;;;;;;;6.07;3.85;;;11.80;99.90;;;;;;4996375;28;20125;-74
2023/10/23 10:00:13;;;;;;;6.28;3.67;;;12.00;99.90;;;;;;5019000;28;20459;-74
2023/10/23 10:02:52;;;;;;;6.47;3.47;;;12.00;99.90;;;;;;5014461;28;20041;-74
2023/10/23 10:05:25;;;;;;;5.50;2.65;;;12.10;99.90;;;;;;5011729;28;20038;-74
2023/10/23 10:08:07;;;;;;;4.80;2.92;;;12.20;99.90;;;;;;4993235;28;20050;-74
2023/10/23 10:10:36;;;;;;;4.63;3.05;;;12.30;99.90;;;;;;5013247;28;20056;-74
2023/10/23 10:13:03;;;;;;;5.80;3.55;;;12.40;99.90;;;;;;5015316;28;20052;-74
2023/10/23 10:15:31;;;;;;;5.03;3.20;;;12.50;99.90;;;;;;5014863;28;20048;-73
2023/10/23 10:17:56;;;;;;;3.65;2.50;;;12.60;99.90;;;;;;5014283;28;20050;-74
2023/10/23 10:20:23;;;;;;;3.83;2.97;;;12.60;99.90;;;;;;5008087;28;20502;-74
2023/10/23 10:22:54;;;;;;;5.82;2.97;;;12.70;99.90;;;;;;5016279;28;20042;-74
2023/10/23 10:25:20;;;;;;;6.53;3.45;;;12.90;99.90;;;;;;5015895;28;20038;-74
2023/10/23 10:27:56;;;;;;;6.97;3.20;;;13.00;99.90;;;;;;5015561;28;20049;-74
2023/10/23 10:30:46;;;;;;;6.47;2.80;;;13.00;99.90;;;;;;5012314;28;20045;-74
2023/10/23 10:33:23;;;;;;;6.85;3.00;;;13.10;99.90;;;;;;5014525;28;20069;-74
2023/10/23 10:35:59;;;;;;;;;;;13.20;99.90;;;;;;4999081;28;20045;-74
2023/10/23 10:38:26;;;;;;;4.43;2.65;;;13.30;99.90;;;;;;5021413;28;19932;-74
2023/10/23 10:40:59;;;;;;;3.95;2.10;;;13.40;99.90;;;;;;5016780;28;20095;-74
2023/10/23 10:43:29;;;;;;;3.95;2.40;;;13.40;99.90;;;;;;5018913;28;20077;-74
2023/10/23 10:45:55;;;;;;;5.03;1.67;;;13.50;99.90;;;;;;5018880;28;20041;-73
2023/10/23 10:48:23;;;;;;;3.45;1.83;;;13.60;99.90;;;;;;5010051;28;20099;-73
2023/10/23 10:50:50;;;;;;;3.50;1.90;;;13.60;99.90;;;;;;5009256;28;20054;-73
2023/10/23 10:53:16;;;;;;;4.07;2.20;;;13.80;99.90;;;;;;5010789;28;20121;-74
2023/10/23 10:55:45;;;;;;;4.00;2.13;;;13.80;99.90;;;;;;5016034;28;20217;-74
2023/10/23 10:58:11;;;;;;;2.42;1.60;;;13.80;99.90;;;;;;5017388;28;20057;-73
2023/10/23 11:00:38;;;;;;;2.83;1.50;;;13.80;99.90;;;;;;4998673;28;20045;-73
2023/10/23 11:03:04;;;;;;;;;;;13.90;99.90;;;;;;5010540;28;20037;-73
2023/10/23 11:05:30;;;;;;;6.55;2.35;;;13.90;99.90;;;;;;5005941;28;19960;-74
2023/10/23 11:07:55;;;;;;;3.30;1.60;;;14.00;99.90;;;;;;5008838;28;20132;-74
2023/10/23 11:10:21;;;;;;;5.80;1.60;;;14.00;99.90;;;;;;5011729;28;20468;-73
2023/10/23 11:12:47;;;;;;;2.83;1.38;;;14.10;99.90;;;;;;5007430;28;20049;-74
2023/10/23 11:15:15;;;;;;;2.20;1.23;;;14.10;99.90;;;;;;5010118;28;20441;-74
2023/10/23 11:17:43;;;;;;;1.83;1.05;;;14.20;99.90;;;;;;5007006;28;20408;-73
2023/10/23 11:20:13;;;;;;;3.03;1.10;;;14.20;99.90;;;;;;5011995;28;20049;-73
2023/10/23 11:22:44;;;;;;;2.75;1.33;;;14.20;99.90;;;;;;5008628;28;20143;-73
2023/10/23 11:25:11;;;;;;;2.00;1.40;;;14.30;99.90;;;;;;5002843;28;20050;-73
2023/10/23 11:27:37;;;;;;;4.40;1.20;;;14.30;99.90;;;;;;5010771;28;20526;-73
2023/10/23 11:30:04;;;;;;;3.40;1.60;;;14.40;99.90;;;;;;5012113;28;21045;-73
2023/10/23 11:32:30;;;;;;;3.03;1.42;;;14.40;99.90;;;;;;4989941;28;20293;-73
2023/10/23 11:35:05;;;;;;;3.90;1.48;;;14.40;99.90;;;;;;4993027;28;20137;-74
2023/10/23 11:37:49;;;;;;;2.78;1.30;;;14.50;99.90;;;;;;5005806;28;20053;-74
2023/10/23 11:40:20;;;;;;;3.28;1.58;;;14.50;99.90;;;;;;5009001;28;20034;-74
2023/10/23 11:42:54;;;;;;;2.80;1.65;;;14.50;99.90;;;;;;5012057;28;20129;-73
2023/10/23 11:45:21;;;;;;;2.95;1.38;;;14.50;99.90;;;;;;5032006;28;20046;-74
2023/10/23 11:47:51;;;;;;;5.30;1.40;;;14.50;99.90;;;;;;5009471;28;20056;-74
2023/10/23 11:50:17;;;;;;;5.28;1.45;;;14.60;99.90;;;;;;4995986;28;20534;-74
2023/10/23 11:52:45;;;;;;;3.17;1.05;;;14.60;99.90;;;;;;5012162;28;20552;-74
2023/10/23 11:55:17;;;;;;;3.33;1.33;;;14.70;99.90;;;;;;4987764;28;20046;-74
2023/10/23 11:57:48;;;;;;;3.03;1.15;;;14.70;99.90;;;;;;5011857;28;20408;-74
2023/10/23 12:00:15;;;;;;;2.55;1.17;;;14.80;99.90;;;;;;5010107;28;20529;-74
2023/10/23 12:02:42;;;;;;;2.88;1.30;;;14.80;99.90;;;;;;5012454;28;20065;-74
2023/10/23 12:05:13;;;;;;;3.45;1.00;;;14.80;99.90;;;;;;5007143;28;20049;-74
2023/10/23 12:07:40;;;;;;;4.20;1.30;;;14.90;99.90;;;;;;5012674;28;20052;-74
2023/10/23 12:10:08;;;;;;;3.85;1.27;;;14.90;99.90;;;;;;5007249;28;20478;-74
2023/10/23 12:12:33;;;;;;;3.97;1.83;;;14.90;99.90;;;;;;5011263;28;20057;-74
2023/10/23 12:14:59;;;;;;;3.15;1.50;;;14.90;99.90;;;;;;5015636;28;20417;-74
2023/10/23 12:17:27;;;;;;;2.97;1.10;;;14.90;99.90;;;;;;5009605;28;20119;-74
2023/10/23 12:19:53;;;;;;;4.82;1.02;;;14.90;99.90;;;;;;5010258;28;20037;-74
2023/10/23 12:22:19;;;;;;;2.00;0.95;;;14.90;99.90;;;;;;5009857;28;20544;-74
2023/10/23 12:24:44;;;;;;;4.55;1.17;;;14.80;99.90;;;;;;5010004;28;20042;-74
2023/10/23 12:27:12;;;;;;;3.43;1.30;;;14.90;99.90;;;;;;5011432;28;20042;-74
2023/10/23 12:29:40;;;;;;;3.88;1.80;;;14.80;99.90;;;;;;5012508;28;20283;-74
2023/10/23 12:32:07;;;;;;;4.22;2.20;;;14.80;99.90;;;;;;5011019;28;20052;-74
2023/10/23 12:34:35;;;;;;;5.57;1.95;;;14.80;99.90;;;;;;5016664;28;20050;-74
2023/10/23 12:37:04;;;;;;;4.85;2.35;;;14.80;99.90;;;;;;5015267;28;20054;-74
2023/10/23 12:39:29;;;;;;;5.80;2.25;;;14.80;99.90;;;;;;5018163;28;20544;-74
2023/10/23 12:41:55;;;;;;;5.95;2.40;;;14.80;99.90;;;;;;5014187;28;20140;-74
2023/10/23 12:44:33;;;;;;;6.97;3.30;;;14.80;99.90;;;;;;5016674;28;20052;-74
2023/10/23 12:46:59;;;;;;;7.32;2.83;;;14.70;99.90;;;;;;4995909;28;20046;-74
2023/10/23 12:49:27;;;;;;;5.43;2.75;;;14.80;99.90;;;;;;5013239;28;20375;-74
2023/10/23 12:51:57;;;;;;;5.97;2.55;;;14.80;99.90;;;;;;5012475;28;20061;-74
2023/10/23 12:54:23;;;;;;;6.18;2.88;;;14.80;99.90;;;;;;5007457;28;20394;-74
2023/10/23 12:56:48;;;;;;;5.30;3.30;;;14.90;99.90;;;;;;5010796;28;20041;-74